Rocky Mount Wilson Regional Airport Rocky Mount US
ICAO: KRWI
IATA: RWI
Category: Medium
Scheduled Services: No

Elevation: 159 ft
TransAlt. 18000 ft.

Airport Communications:
ASOS:118.875
CLNC DEL:122.3
WASHINGTON CNTR:135.3
RALEIGH RDO:122.2
CTAF/UNICOM:123.05

KRWI Zoom In..

If you have problems with the map follow the link
https://www.worldairports.se/pages/airport.php?
ICAO=KRWI

Runways:

(A) RW 04 length 7099 ft width 150 ft
ILS 108.30 / hdg 42

(B) RW 22 length 7099 ft width 150 ft
---- / hdg 222

Location; KRWI
Day. 18 / Time. 03.53 Zulu
* Altimeter: 30.68
* Temperature: 02° c. 35.6°f.
* Wind from: 000° Speed 00 kn.
Dewpoint: -06° c.
Visibility: 10 Statute Miles.
Clouds: Clear (automated report).

KRWI 180353Z AUTO 00000KT 10SM CLR 02/M06 A3068 RMK AO2 SLP391 T00221061


Wind - Calm.

 
 
jpsmedia worldairports.se 2020   terms of use